Time;durP1;ratioP1;P1;durP2;ratioP2;P2;SDS_P1;SDS_P2;PMS_P1;PMS_P2;Temp;Humidity;BMP_temperature;BMP_pressure;BME280_temperature;BME280_humidity;BME280_pressure;Samples;Min_cycle;Max_cycle;Signal;HPM_P1;HPM_P2
2021/11/24 00:02:29;;;;;;;14.98;7.22;;;12.60;55.80;;;;;;6145227;28;20040;-69
2021/11/24 00:05:30;;;;;;;15.73;7.03;;;12.60;56.40;;;;;;6142780;28;20477;-69
2021/11/24 00:08:31;;;;;;;16.00;7.63;;;12.50;55.70;;;;;;6143506;28;20471;-68
2021/11/24 00:11:31;;;;;;;16.80;7.55;;;12.50;55.80;;;;;;6151377;28;20046;-70
2021/11/24 00:14:32;;;;;;;14.18;7.30;;;12.50;56.50;;;;;;6158540;28;20110;-68
2021/11/24 00:17:34;;;;;;;14.13;7.85;;;12.60;55.90;;;;;;6152836;28;20035;-68
2021/11/24 00:20:35;;;;;;;18.27;7.43;;;12.50;55.90;;;;;;6137536;28;20037;-68
2021/11/24 00:23:36;;;;;;;16.25;7.90;;;12.50;55.90;;;;;;6148429;28;20043;-68
2021/11/24 00:26:37;;;;;;;16.15;7.97;;;12.50;55.90;;;;;;6154128;28;20038;-68
2021/11/24 00:29:38;;;;;;;14.20;7.65;;;12.50;55.90;;;;;;6137583;28;20035;-70
2021/11/24 00:32:39;;;;;;;16.35;7.88;;;12.40;55.90;;;;;;6144389;28;20024;-69
2021/11/24 00:35:40;;;;;;;12.88;7.63;;;12.40;56.00;;;;;;6153028;28;20046;-68
2021/11/24 00:38:41;;;;;;;15.05;7.95;;;12.40;56.10;;;;;;6148600;28;20034;-68
2021/11/24 00:41:42;;;;;;;14.30;7.20;;;12.40;56.10;;;;;;6149452;28;20031;-68
2021/11/24 00:44:43;;;;;;;14.75;8.35;;;12.40;56.10;;;;;;6152329;28;20039;-69
2021/11/24 00:47:44;;;;;;;15.65;8.05;;;12.40;56.20;;;;;;6148989;28;20122;-69
2021/11/24 00:50:45;;;;;;;12.15;7.20;;;12.40;56.30;;;;;;6142479;28;20135;-70
2021/11/24 00:53:46;;;;;;;15.15;8.35;;;12.40;56.20;;;;;;6148245;28;20043;-69
2021/11/24 00:56:47;;;;;;;14.82;6.93;;;12.50;56.20;;;;;;6146500;28;20055;-68
2021/11/24 00:59:47;;;;;;;14.60;8.10;;;12.50;56.70;;;;;;6144909;28;20045;-68
2021/11/24 01:02:48;;;;;;;14.35;7.65;;;12.50;55.90;;;;;;6133169;29;20432;-69
2021/11/24 01:05:49;;;;;;;18.80;7.63;;;12.50;55.80;;;;;;6174824;28;20051;-68
2021/11/24 01:08:50;;;;;;;18.58;8.13;;;12.50;55.70;;;;;;6144241;28;20050;-69
2021/11/24 01:11:51;;;;;;;17.08;7.90;;;12.50;55.60;;;;;;6150187;28;20043;-69
2021/11/24 01:14:52;;;;;;;13.10;6.80;;;12.50;55.80;;;;;;6147546;28;20385;-69
2021/11/24 01:17:54;;;;;;;16.73;7.93;;;12.50;55.70;;;;;;6144117;28;20035;-69
2021/11/24 01:20:55;;;;;;;15.65;8.38;;;12.50;55.60;;;;;;6147601;28;20146;-69
2021/11/24 01:23:56;;;;;;;17.75;8.23;;;12.50;55.70;;;;;;6141497;28;20047;-69
2021/11/24 01:26:57;;;;;;;16.23;7.57;;;12.50;55.70;;;;;;6151949;28;20035;-69
2021/11/24 01:29:58;;;;;;;17.92;8.90;;;12.50;55.70;;;;;;6149883;28;20031;-69
2021/11/24 01:32:59;;;;;;;17.00;8.65;;;12.50;55.60;;;;;;6140010;28;20043;-69
2021/11/24 01:36:00;;;;;;;15.88;7.80;;;12.50;55.60;;;;;;6129644;28;20098;-69
2021/11/24 01:39:02;;;;;;;15.07;7.40;;;12.50;55.60;;;;;;6149122;28;20050;-70
2021/11/24 01:42:03;;;;;;;20.42;8.60;;;12.50;55.60;;;;;;6140491;28;20036;-69
2021/11/24 01:45:06;;;;;;;15.90;7.65;;;12.40;55.60;;;;;;6143426;28;20102;-70
2021/11/24 01:48:07;;;;;;;13.70;7.30;;;12.40;55.60;;;;;;6147009;28;20118;-70
2021/11/24 01:51:07;;;;;;;17.23;7.68;;;12.40;55.60;;;;;;6140255;28;20490;-69
2021/11/24 01:54:08;;;;;;;15.98;7.50;;;12.40;55.70;;;;;;6129734;29;20039;-70
2021/11/24 01:57:10;;;;;;;16.58;7.53;;;12.40;55.60;;;;;;6103527;29;20166;-69
2021/11/24 02:00:14;;;;;;;15.27;7.63;;;12.40;55.70;;;;;;6144124;29;20512;-70
2021/11/24 02:03:15;;;;;;;17.23;7.70;;;12.40;55.70;;;;;;6133153;29;20062;-70
2021/11/24 02:06:16;;;;;;;19.33;7.75;;;12.40;55.60;;;;;;6116346;29;20480;-69
2021/11/24 02:09:18;;;;;;;15.35;7.95;;;12.40;55.70;;;;;;6147643;28;20035;-70
2021/11/24 02:12:19;;;;;;;16.60;8.05;;;12.40;55.80;;;;;;6129784;29;20086;-70
2021/11/24 02:15:21;;;;;;;15.07;7.40;;;12.30;55.80;;;;;;6115353;28;20039;-69
2021/11/24 02:18:22;;;;;;;14.30;7.10;;;12.30;55.80;;;;;;6119145;28;20035;-69
2021/11/24 02:21:23;;;;;;;15.00;8.07;;;12.30;55.80;;;;;;6143727;28;20492;-70
2021/11/24 02:24:28;;;;;;;19.40;7.60;;;12.30;55.80;;;;;;6146164;28;20376;-69
2021/11/24 02:27:29;;;;;;;14.43;7.22;;;12.30;55.90;;;;;;6142970;28;20035;-70
2021/11/24 02:30:30;;;;;;;18.35;8.02;;;12.30;56.60;;;;;;6114856;29;20126;-70
2021/11/24 02:33:31;;;;;;;16.02;7.63;;;12.30;56.00;;;;;;6132845;28;20046;-70
2021/11/24 02:36:33;;;;;;;17.77;7.95;;;12.30;56.00;;;;;;6130610;28;20039;-69
2021/11/24 02:39:34;;;;;;;14.25;7.50;;;12.20;56.00;;;;;;6113475;29;20036;-70
2021/11/24 02:42:38;;;;;;;16.02;8.00;;;12.20;56.00;;;;;;6156760;28;20059;-70
2021/11/24 02:45:39;;;;;;;15.27;7.45;;;12.20;56.00;;;;;;6131061;28;20039;-70
2021/11/24 02:48:40;;;;;;;14.70;7.80;;;12.20;56.00;;;;;;6123987;28;20118;-70
2021/11/24 02:52:01;;;;;;;16.88;8.30;;;12.20;56.00;;;;;;6121522;29;20519;-69
2021/11/24 02:55:05;;;;;;;18.48;8.77;;;12.20;56.00;;;;;;6146299;28;20039;-69
2021/11/24 02:58:06;;;;;;;17.23;9.18;;;12.20;56.00;;;;;;6142275;28;20126;-70
2021/11/24 03:01:07;;;;;;;17.42;8.02;;;12.20;56.00;;;;;;6118709;28;20120;-69
2021/11/24 03:04:08;;;;;;;20.48;8.35;;;12.20;56.00;;;;;;6128896;28;20051;-71
2021/11/24 03:07:09;;;;;;;15.98;7.30;;;12.20;56.00;;;;;;6142270;28;20039;-70
2021/11/24 03:10:10;;;;;;;15.48;8.02;;;12.20;55.90;;;;;;6136203;28;20111;-71
2021/11/24 03:13:11;;;;;;;17.40;8.57;;;12.20;55.90;;;;;;6138267;28;20189;-69
2021/11/24 03:16:11;;;;;;;13.68;7.18;;;12.30;56.00;;;;;;6142179;28;20039;-70
2021/11/24 03:19:13;;;;;;;17.38;7.75;;;12.30;55.90;;;;;;6129789;28;20039;-70
2021/11/24 03:22:21;;;;;;;15.10;7.30;;;12.30;55.90;;;;;;6108183;28;20044;-70
2021/11/24 03:25:22;;;;;;;;;;;12.30;55.90;;;;;;6137028;28;20098;-70
2021/11/24 03:28:23;;;;;;;16.23;7.50;;;12.20;55.80;;;;;;6143365;28;20233;-70
2021/11/24 03:31:24;;;;;;;16.80;7.38;;;12.20;55.80;;;;;;6149542;28;20035;-70
2021/11/24 03:34:25;;;;;;;17.33;8.27;;;12.20;55.90;;;;;;6145775;28;20471;-70
2021/11/24 03:37:26;;;;;;;21.75;8.57;;;12.10;55.80;;;;;;6149046;28;20044;-70
2021/11/24 03:40:29;;;;;;;15.85;7.28;;;12.10;55.90;;;;;;6142405;28;20043;-70
2021/11/24 03:43:31;;;;;;;13.63;7.28;;;12.10;56.00;;;;;;6140897;28;20036;-70
2021/11/24 03:46:33;;;;;;;16.13;7.63;;;12.10;55.80;;;;;;6130707;28;20458;-70
2021/11/24 03:49:34;;;;;;;12.55;6.93;;;12.20;55.80;;;;;;6144611;28;20063;-71
2021/11/24 03:52:35;;;;;;;13.70;6.95;;;12.20;55.80;;;;;;6123759;29;20035;-71
2021/11/24 03:55:36;;;;;;;18.33;7.68;;;12.20;55.80;;;;;;6133032;28;20060;-71
2021/11/24 03:58:38;;;;;;;15.80;7.20;;;12.20;55.70;;;;;;6131100;29;20032;-71
2021/11/24 04:01:39;;;;;;;13.70;7.15;;;12.20;55.50;;;;;;6141423;28;20523;-70
2021/11/24 04:04:39;;;;;;;17.98;6.80;;;12.20;55.40;;;;;;6119436;28;20062;-72
2021/11/24 04:07:41;;;;;;;12.38;6.82;;;12.20;55.40;;;;;;6142777;28;20039;-71
2021/11/24 04:10:42;;;;;;;19.73;7.93;;;12.30;55.40;;;;;;6144562;28;20473;-70
2021/11/24 04:13:42;;;;;;;13.88;7.72;;;12.20;55.20;;;;;;6131468;28;20038;-70
2021/11/24 04:16:43;;;;;;;17.02;6.97;;;12.20;55.20;;;;;;6138204;28;20409;-70
2021/11/24 04:19:45;;;;;;;15.20;6.18;;;12.20;55.40;;;;;;6128145;29;20051;-71
2021/11/24 04:22:46;;;;;;;16.58;7.18;;;12.20;55.30;;;;;;6144600;28;20059;-71
2021/11/24 04:25:47;;;;;;;12.05;6.22;;;12.20;55.30;;;;;;6134968;28;20154;-70
2021/11/24 04:28:49;;;;;;;14.75;6.60;;;12.20;55.30;;;;;;6144381;28;20118;-70
2021/11/24 04:31:50;;;;;;;17.85;8.18;;;12.20;55.30;;;;;;6124634;28;20044;-70
2021/11/24 04:34:51;;;;;;;20.33;7.85;;;12.20;55.30;;;;;;6122133;28;20101;-71
2021/11/24 04:37:52;;;;;;;14.35;6.97;;;12.20;55.40;;;;;;6132939;28;20390;-70
2021/11/24 04:40:54;;;;;;;17.48;7.25;;;12.20;55.40;;;;;;6132030;29;20523;-71
2021/11/24 04:43:55;;;;;;;17.50;7.05;;;12.20;55.30;;;;;;6135015;28;20453;-70
2021/11/24 04:46:56;;;;;;;12.23;6.20;;;12.20;55.30;;;;;;6132790;28;20039;-69
2021/11/24 04:49:56;;;;;;;11.63;5.75;;;12.20;55.30;;;;;;6138207;28;20088;-71
2021/11/24 04:52:57;;;;;;;15.57;6.25;;;12.20;55.30;;;;;;6157735;28;20062;-71
2021/11/24 04:55:58;;;;;;;15.77;7.18;;;12.20;55.10;;;;;;6154220;28;20039;-70
2021/11/24 04:59:02;;;;;;;14.27;6.75;;;12.10;55.10;;;;;;6186249;28;20042;-71
2021/11/24 05:02:04;;;;;;;16.17;7.78;;;12.10;55.20;;;;;;6164936;28;20453;-70
2021/11/24 05:05:05;;;;;;;18.25;6.90;;;12.10;55.10;;;;;;6185247;28;20475;-71
2021/11/24 05:08:07;;;;;;;16.85;7.82;;;12.10;55.20;;;;;;6176559;28;20035;-71
2021/11/24 05:11:08;;;;;;;14.75;7.53;;;12.10;55.10;;;;;;6152260;28;20043;-71
2021/11/24 05:14:15;;;;;;;15.35;6.93;;;12.10;55.10;;;;;;6151542;28;20470;-71
2021/11/24 05:17:19;;;;;;;17.08;7.53;;;12.10;55.20;;;;;;6147573;28;20042;-70
2021/11/24 05:20:23;;;;;;;16.30;7.65;;;12.00;55.20;;;;;;6161868;28;20115;-70
2021/11/24 05:23:26;;;;;;;14.02;6.18;;;12.00;55.30;;;;;;6149966;28;20157;-71
2021/11/24 05:26:28;;;;;;;11.95;6.57;;;12.00;55.40;;;;;;6146784;28;20046;-70
2021/11/24 05:29:29;;;;;;;13.30;6.43;;;12.00;55.40;;;;;;6168869;28;20022;-71
2021/11/24 05:32:30;;;;;;;18.60;7.53;;;12.00;55.50;;;;;;6148507;28;20074;-71
2021/11/24 05:35:30;;;;;;;13.52;7.72;;;12.00;55.50;;;;;;6159386;28;20122;-71
2021/11/24 05:38:32;;;;;;;14.43;7.25;;;12.10;55.40;;;;;;6155938;28;20039;-70
2021/11/24 05:41:38;;;;;;;12.95;7.05;;;12.10;55.60;;;;;;6170110;28;20372;-70
2021/11/24 05:44:38;;;;;;;15.55;6.88;;;12.10;55.60;;;;;;6144086;28;20138;-71
2021/11/24 05:50:53;;;;;;;14.15;6.72;;;12.10;55.60;;;;;;6142539;28;20469;-69
2021/11/24 05:53:54;;;;;;;13.13;6.80;;;12.10;55.50;;;;;;6128757;29;20039;-70
2021/11/24 05:56:54;;;;;;;16.00;7.60;;;12.10;55.30;;;;;;6132400;28;20482;-69
2021/11/24 05:59:55;;;;;;;15.05;6.70;;;12.10;55.30;;;;;;6143124;28;20043;-70
2021/11/24 06:02:56;;;;;;;14.60;7.03;;;12.10;55.30;;;;;;6121009;28;20106;-69
2021/11/24 06:05:57;;;;;;;13.73;7.47;;;12.10;55.30;;;;;;6144310;28;20539;-73
2021/11/24 06:08:58;;;;;;;12.90;6.65;;;12.00;55.20;;;;;;6138940;29;20040;-70
2021/11/24 06:11:59;;;;;;;9.05;5.10;;;12.00;55.20;;;;;;6139382;28;20071;-70
2021/11/24 06:15:00;;;;;;;8.55;4.10;;;12.00;55.30;;;;;;6144158;28;20113;-69
2021/11/24 06:18:01;;;;;;;5.30;3.20;;;12.00;55.20;;;;;;6144034;28;20050;-70
2021/11/24 06:21:02;;;;;;;5.50;2.63;;;11.90;55.10;;;;;;6126348;29;20464;-69
2021/11/24 06:24:04;;;;;;;6.95;3.13;;;11.90;55.00;;;;;;6126124;28;20047;-70
2021/11/24 06:27:05;;;;;;;6.45;3.20;;;11.90;54.90;;;;;;6147944;28;20047;-71
2021/11/24 06:30:06;;;;;;;6.72;3.25;;;11.80;54.80;;;;;;6114050;28;20044;-72
2021/11/24 06:33:07;;;;;;;8.40;3.58;;;11.80;54.80;;;;;;6131406;28;20046;-70
2021/11/24 06:36:08;;;;;;;5.28;2.75;;;11.80;54.80;;;;;;6121674;28;20039;-71
2021/11/24 06:39:09;;;;;;;5.60;2.88;;;11.80;54.80;;;;;;6131371;28;20380;-71
2021/11/24 06:42:10;;;;;;;8.85;3.65;;;11.80;54.70;;;;;;6127199;29;20039;-70
2021/11/24 06:45:12;;;;;;;6.88;3.10;;;11.80;54.60;;;;;;6159068;28;20044;-73
2021/11/24 06:48:13;;;;;;;7.00;3.65;;;11.80;54.70;;;;;;6160793;28;20125;-71
2021/11/24 06:51:14;;;;;;;6.97;3.03;;;11.80;54.70;;;;;;6116389;29;20050;-71
2021/11/24 06:54:19;;;;;;;3.85;2.65;;;11.80;54.70;;;;;;6143796;28;20031;-69
2021/11/24 06:57:20;;;;;;;7.93;3.25;;;11.80;54.60;;;;;;6165752;28;20035;-71
2021/11/24 07:00:21;;;;;;;4.45;2.95;;;11.80;54.60;;;;;;6151129;28;20062;-71
2021/11/24 07:03:21;;;;;;;5.60;3.15;;;11.80;54.50;;;;;;6157795;28;20043;-71
2021/11/24 07:06:22;;;;;;;4.82;2.63;;;11.90;54.40;;;;;;6134591;28;20070;-70
2021/11/24 07:09:26;;;;;;;6.05;2.97;;;11.90;54.40;;;;;;6140904;28;20049;-70
2021/11/24 07:12:27;;;;;;;10.18;3.35;;;11.90;54.40;;;;;;6153617;28;20038;-70
2021/11/24 07:15:28;;;;;;;6.80;3.35;;;11.90;54.30;;;;;;6138710;28;20105;-70
2021/11/24 07:18:30;;;;;;;5.75;2.75;;;11.90;54.30;;;;;;6149272;28;20085;-71
2021/11/24 07:21:31;;;;;;;5.13;2.60;;;11.90;54.10;;;;;;6163866;28;20047;-70
2021/11/24 07:24:32;;;;;;;6.53;3.00;;;11.90;54.20;;;;;;6162673;28;20049;-70
2021/11/24 07:27:33;;;;;;;5.53;3.00;;;11.90;54.20;;;;;;6148396;28;20034;-70
2021/11/24 07:30:34;;;;;;;5.97;3.10;;;12.00;54.10;;;;;;6164767;28;20185;-71
2021/11/24 07:33:35;;;;;;;4.18;2.50;;;12.00;54.00;;;;;;6137475;28;20046;-70
2021/11/24 07:36:35;;;;;;;7.50;2.10;;;12.00;54.00;;;;;;6128611;28;20043;-70
2021/11/24 07:39:36;;;;;;;12.35;2.92;;;11.90;53.90;;;;;;6158333;28;20420;-70
2021/11/24 07:42:38;;;;;;;8.45;3.10;;;12.00;53.80;;;;;;6157203;28;20166;-70
2021/11/24 07:45:39;;;;;;;5.38;2.50;;;12.00;53.80;;;;;;6150099;28;20119;-70
2021/11/24 07:48:40;;;;;;;5.82;3.45;;;11.90;53.80;;;;;;6149613;28;20459;-71
2021/11/24 07:51:41;;;;;;;8.70;3.20;;;11.90;53.80;;;;;;6181411;28;20057;-70
2021/11/24 07:54:43;;;;;;;5.75;2.60;;;11.90;53.80;;;;;;6173585;28;20365;-72
2021/11/24 07:57:44;;;;;;;5.00;2.70;;;11.80;53.80;;;;;;6178070;28;20041;-70
2021/11/24 08:00:45;;;;;;;6.72;3.38;;;11.80;53.80;;;;;;6179846;28;20137;-70
2021/11/24 08:03:46;;;;;;;9.52;3.03;;;11.80;53.90;;;;;;6169628;28;20035;-70
2021/11/24 08:06:47;;;;;;;11.00;3.25;;;11.80;54.00;;;;;;6169725;28;20420;-70
2021/11/24 08:09:48;;;;;;;5.65;2.05;;;11.90;53.90;;;;;;6187160;28;20070;-71
2021/11/24 08:12:49;;;;;;;5.90;2.78;;;11.90;53.80;;;;;;6182698;28;20074;-71
2021/11/24 08:15:50;;;;;;;4.88;2.70;;;11.90;54.30;;;;;;6172835;28;20038;-70
2021/11/24 08:18:51;;;;;;;4.53;2.85;;;11.90;53.70;;;;;;6193519;28;20038;-70
2021/11/24 08:21:52;;;;;;;5.63;3.10;;;11.90;53.70;;;;;;6163669;28;20108;-71
2021/11/24 08:24:52;;;;;;;8.10;3.00;;;11.90;53.80;;;;;;6184021;28;20038;-72
2021/11/24 08:27:56;;;;;;;7.07;3.22;;;12.00;53.80;;;;;;6181119;28;20394;-72
2021/11/24 08:30:57;;;;;;;6.25;3.20;;;12.10;53.70;;;;;;6166324;28;20034;-70
2021/11/24 08:33:58;;;;;;;8.35;2.63;;;12.10;53.50;;;;;;6166244;28;20039;-71
2021/11/24 08:36:59;;;;;;;7.15;2.85;;;12.10;53.30;;;;;;6179142;28;20141;-70
2021/11/24 08:40:00;;;;;;;8.73;3.20;;;12.10;53.20;;;;;;6181276;28;20100;-71
2021/11/24 08:43:02;;;;;;;5.05;2.50;;;12.10;53.30;;;;;;6167604;28;20027;-68
2021/11/24 08:46:03;;;;;;;4.85;2.63;;;12.10;53.40;;;;;;6159447;28;20133;-70
2021/11/24 08:49:05;;;;;;;6.65;2.75;;;12.10;53.40;;;;;;6185833;28;20480;-70
2021/11/24 08:52:07;;;;;;;5.35;2.53;;;12.20;53.40;;;;;;6153347;28;20030;-70
2021/11/24 08:55:09;;;;;;;6.05;2.65;;;12.20;53.30;;;;;;6163515;28;20351;-71
2021/11/24 08:58:10;;;;;;;5.82;2.88;;;12.30;53.20;;;;;;6196962;28;20057;-71
2021/11/24 09:01:11;;;;;;;6.35;2.95;;;12.30;53.00;;;;;;6167118;28;20118;-71
2021/11/24 09:04:12;;;;;;;5.20;2.88;;;12.30;52.80;;;;;;6175442;28;20372;-72
2021/11/24 09:07:14;;;;;;;5.35;2.85;;;12.30;52.70;;;;;;6176496;28;20042;-72
2021/11/24 09:10:16;;;;;;;10.55;3.00;;;12.30;52.70;;;;;;6164794;28;20053;-71
2021/11/24 09:13:16;;;;;;;5.68;2.90;;;12.40;52.70;;;;;;6173695;28;20065;-72
2021/11/24 09:16:18;;;;;;;12.90;3.58;;;12.40;52.60;;;;;;6195554;28;20105;-72
2021/11/24 09:19:18;;;;;;;8.32;3.53;;;12.50;52.60;;;;;;6190213;28;20042;-71
2021/11/24 09:22:19;;;;;;;5.70;3.05;;;12.50;52.40;;;;;;6175325;28;20082;-71
2021/11/24 09:25:25;;;;;;;15.00;5.10;;;12.60;52.40;;;;;;6192099;28;20046;-71
2021/11/24 09:28:35;;;;;;;7.68;4.13;;;12.80;52.20;;;;;;6159061;28;20073;-71
2021/11/24 09:31:36;;;;;;;14.10;4.00;;;12.90;52.10;;;;;;6168032;28;20034;-71
2021/11/24 09:34:37;;;;;;;7.90;4.53;;;13.00;51.90;;;;;;6184263;28;20043;-72
2021/11/24 09:37:39;;;;;;;10.23;4.25;;;13.10;51.90;;;;;;6169166;28;20066;-70
2021/11/24 09:40:40;;;;;;;11.95;5.15;;;13.20;51.60;;;;;;6177704;28;20049;-71
2021/11/24 09:43:50;;;;;;;10.38;5.00;;;13.30;51.60;;;;;;6182981;28;20041;-72
2021/11/24 09:46:51;;;;;;;;;;;13.30;51.50;;;;;;6185664;28;20482;-71
2021/11/24 09:49:57;;;;;;;11.40;5.20;;;13.40;51.20;;;;;;6177810;28;19925;-71
2021/11/24 09:52:58;;;;;;;13.23;6.40;;;13.50;51.00;;;;;;6164748;28;20121;-71
2021/11/24 09:56:01;;;;;;;24.63;9.68;;;13.60;50.90;;;;;;6162264;28;20030;-71
2021/11/24 09:59:03;;;;;;;25.77;12.18;;;13.80;50.90;;;;;;6186135;28;20026;-71
2021/11/24 10:02:04;;;;;;;25.52;10.43;;;14.00;50.60;;;;;;6176988;28;20054;-73
2021/11/24 10:05:06;;;;;;;19.10;7.93;;;14.20;50.20;;;;;;6172158;28;20105;-72
2021/11/24 10:08:07;;;;;;;27.08;12.15;;;14.20;49.90;;;;;;6181018;28;20412;-72
2021/11/24 10:11:11;;;;;;;14.23;7.20;;;14.20;50.00;;;;;;6187335;28;20042;-72
2021/11/24 10:14:12;;;;;;;15.57;8.15;;;14.10;50.00;;;;;;6157100;28;20177;-72
2021/11/24 10:17:16;;;;;;;17.00;7.45;;;14.10;49.90;;;;;;6189465;28;20508;-71
2021/11/24 10:20:17;;;;;;;19.55;8.55;;;14.10;50.00;;;;;;6191491;28;20456;-72
2021/11/24 10:23:21;;;;;;;21.25;8.82;;;14.10;49.90;;;;;;6183207;28;20153;-71
2021/11/24 10:26:34;;;;;;;20.23;8.10;;;14.00;50.00;;;;;;6176939;28;20432;-71
2021/11/24 10:29:37;;;;;;;16.48;8.13;;;14.10;50.30;;;;;;6186336;28;20039;-72
2021/11/24 10:32:38;;;;;;;25.52;8.98;;;14.10;50.20;;;;;;6176485;28;20062;-71
2021/11/24 10:35:39;;;;;;;18.55;9.50;;;14.10;50.10;;;;;;6181373;28;20035;-71
2021/11/24 10:38:43;;;;;;;27.60;11.80;;;14.30;50.10;;;;;;6180128;28;20057;-71
2021/11/24 10:41:44;;;;;;;30.92;11.85;;;14.50;50.00;;;;;;6187543;28;20026;-72
2021/11/24 10:44:49;;;;;;;24.90;9.90;;;14.40;49.80;;;;;;6160156;28;20045;-73
2021/11/24 10:47:54;;;;;;;21.17;9.65;;;14.50;50.00;;;;;;6196739;28;20042;-73
2021/11/24 10:50:56;;;;;;;20.25;9.20;;;14.80;49.80;;;;;;6157357;28;20474;-72
2021/11/24 10:54:09;;;;;;;18.13;8.80;;;15.30;48.60;;;;;;6172085;28;20030;-70
2021/11/24 10:57:12;;;;;;;28.83;12.55;;;15.50;48.30;;;;;;6192612;28;20034;-71
2021/11/24 11:00:22;;;;;;;31.50;12.70;;;16.00;47.40;;;;;;6177396;28;20042;-71
2021/11/24 11:03:42;;;;;;;21.20;10.18;;;16.50;46.30;;;;;;6177803;28;20035;-71
2021/11/24 11:06:43;;;;;;;17.67;7.35;;;16.80;45.60;;;;;;6169272;28;20043;-72
2021/11/24 11:09:44;;;;;;;19.00;8.18;;;17.10;44.50;;;;;;6157827;28;20034;-71
2021/11/24 11:12:52;;;;;;;27.67;11.57;;;17.30;43.40;;;;;;6193790;28;20034;-71
2021/11/24 11:15:54;;;;;;;16.10;8.32;;;17.50;43.20;;;;;;6168518;28;20441;-72
2021/11/24 11:18:55;;;;;;;15.15;8.00;;;17.60;42.70;;;;;;6177768;28;20532;-72
2021/11/24 11:21:57;;;;;;;30.60;13.70;;;17.80;42.30;;;;;;6183592;28;20034;-71
2021/11/24 11:24:58;;;;;;;18.70;8.00;;;17.90;42.00;;;;;;6154267;28;20050;-73
2021/11/24 11:28:00;;;;;;;18.27;8.65;;;18.10;42.00;;;;;;6189414;28;20045;-72
2021/11/24 11:31:06;;;;;;;16.90;7.85;;;18.00;41.70;;;;;;6160386;28;20030;-71
2021/11/24 11:34:10;;;;;;;45.08;16.08;;;17.70;41.70;;;;;;6169897;28;20040;-73
2021/11/24 11:37:11;;;;;;;35.40;15.75;;;17.70;42.30;;;;;;6173567;28;20356;-73
2021/11/24 11:40:15;;;;;;;31.13;13.50;;;18.00;41.60;;;;;;6130601;28;20090;-74
2021/11/24 11:43:16;;;;;;;29.30;13.60;;;18.30;41.40;;;;;;6182169;28;20035;-71
2021/11/24 11:46:25;;;;;;;24.70;9.68;;;18.30;41.40;;;;;;6186269;28;20057;-72
2021/11/24 11:49:28;;;;;;;27.98;11.15;;;17.90;41.40;;;;;;6162832;28;20118;-73
2021/11/24 11:52:29;;;;;;;12.93;6.80;;;17.50;42.00;;;;;;6174885;28;20042;-72
2021/11/24 11:55:30;;;;;;;31.60;12.93;;;17.10;42.60;;;;;;6191089;28;20066;-73
2021/11/24 11:58:32;;;;;;;24.50;9.88;;;16.70;43.10;;;;;;6178930;28;20121;-72
2021/11/24 12:01:42;;;;;;;16.58;8.98;;;16.40;43.80;;;;;;6193146;28;20031;-71
2021/11/24 12:04:46;;;;;;;20.00;8.52;;;16.10;44.30;;;;;;6178267;28;20071;-73
2021/11/24 12:08:14;;;;;;;16.77;7.13;;;16.00;44.90;;;;;;6188990;28;20062;-73
2021/11/24 12:11:15;;;;;;;15.82;7.30;;;15.80;45.00;;;;;;6184893;28;20038;-72
2021/11/24 12:14:53;;;;;;;19.83;9.20;;;15.50;45.30;;;;;;6186371;28;20069;-72
2021/11/24 12:17:59;;;;;;;17.63;8.32;;;15.30;45.80;;;;;;6205197;28;20104;-72
2021/11/24 12:21:03;;;;;;;19.60;8.93;;;15.20;46.30;;;;;;6140547;28;20385;-73
2021/11/24 12:24:07;;;;;;;16.08;9.02;;;15.10;46.60;;;;;;6185452;28;20464;-71
2021/11/24 12:27:09;;;;;;;36.72;13.10;;;15.00;46.90;;;;;;6168897;28;20467;-72
2021/11/24 12:30:10;;;;;;;15.18;8.30;;;15.00;47.10;;;;;;6190469;28;20154;-72
2021/11/24 12:33:13;;;;;;;23.92;8.77;;;15.00;47.30;;;;;;6187340;28;20125;-72
2021/11/24 12:36:22;;;;;;;17.83;8.35;;;14.90;47.40;;;;;;6170941;28;20041;-73
2021/11/24 12:39:25;;;;;;;16.95;9.40;;;14.80;47.60;;;;;;6197926;28;20117;-74
2021/11/24 12:42:26;;;;;;;17.50;7.88;;;14.70;47.90;;;;;;6191192;28;20069;-73
2021/11/24 12:45:28;;;;;;;15.63;7.85;;;14.70;48.10;;;;;;6194216;28;20034;-73
2021/11/24 12:48:36;;;;;;;17.25;7.65;;;14.70;48.20;;;;;;6187569;28;20495;-73
2021/11/24 12:51:46;;;;;;;20.27;8.45;;;14.80;48.10;;;;;;6161368;28;20047;-74
2021/11/24 12:54:48;;;;;;;16.25;7.15;;;14.70;48.20;;;;;;6156660;28;20031;-73
2021/11/24 12:57:50;;;;;;;18.90;7.55;;;14.70;48.10;;;;;;6141584;28;20479;-72
2021/11/24 13:00:51;;;;;;;19.20;8.27;;;14.70;48.00;;;;;;6159211;28;20039;-73
2021/11/24 13:04:02;;;;;;;16.63;8.13;;;14.60;48.10;;;;;;6152325;28;20039;-73
2021/11/24 13:07:05;;;;;;;19.63;8.23;;;14.50;48.20;;;;;;6142810;28;20097;-73
2021/11/24 13:10:06;;;;;;;17.35;8.23;;;14.50;48.20;;;;;;6147760;28;20035;-73
2021/11/24 13:13:10;;;;;;;15.80;7.00;;;14.50;48.30;;;;;;6135210;28;20031;-73
2021/11/24 13:16:19;;;;;;;21.20;11.25;;;14.50;48.80;;;;;;6144041;28;20035;-73
2021/11/24 13:19:44;;;;;;;17.63;8.77;;;14.50;48.30;;;;;;6149115;28;20062;-74
2021/11/24 13:22:48;;;;;;;18.35;7.47;;;14.50;48.40;;;;;;6149830;28;20027;-74
2021/11/24 13:25:49;;;;;;;12.32;6.82;;;14.40;48.50;;;;;;6152771;28;20449;-73
2021/11/24 13:28:54;;;;;;;14.85;7.13;;;14.50;48.60;;;;;;6163234;28;20464;-72
2021/11/24 13:32:09;;;;;;;23.23;6.90;;;14.50;48.60;;;;;;6147194;28;20118;-73
2021/11/24 13:35:10;;;;;;;12.88;6.32;;;14.50;48.60;;;;;;6128889;28;20023;-74
2021/11/24 13:38:24;;;;;;;13.77;6.72;;;14.50;48.60;;;;;;6142496;28;20045;-73
2021/11/24 13:41:33;;;;;;;16.42;7.45;;;14.50;48.60;;;;;;6160535;28;20031;-73
2021/11/24 13:44:45;;;;;;;19.60;9.10;;;14.60;48.60;;;;;;6154234;28;20046;-73
2021/11/24 13:47:46;;;;;;;21.85;10.15;;;14.60;48.50;;;;;;6151502;28;20062;-72
2021/11/24 13:50:57;;;;;;;17.52;6.68;;;14.70;48.50;;;;;;6179476;28;20054;-73
2021/11/24 13:54:17;;;;;;;16.10;6.90;;;14.70;48.50;;;;;;6174342;28;20035;-73
2021/11/24 13:57:19;;;;;;;21.10;11.10;;;14.70;48.30;;;;;;6168279;28;20037;-73
2021/11/24 14:00:20;;;;;;;12.35;6.25;;;14.70;48.40;;;;;;6169157;28;20041;-72
2021/11/24 14:03:28;;;;;;;14.43;6.50;;;14.70;48.40;;;;;;6161067;28;20043;-72
2021/11/24 14:06:39;;;;;;;17.55;7.35;;;14.70;48.30;;;;;;6143770;28;20041;-78
2021/11/24 14:09:43;;;;;;;19.02;9.85;;;14.70;48.40;;;;;;6182781;28;20034;-78
2021/11/24 14:12:45;;;;;;;19.02;8.75;;;14.70;48.40;;;;;;6147866;28;20250;-73
2021/11/24 14:15:46;;;;;;;19.88;8.60;;;14.70;48.50;;;;;;6163252;28;20060;-73
2021/11/24 14:18:47;;;;;;;16.88;7.22;;;14.70;48.50;;;;;;6185180;28;20089;-72
2021/11/24 14:21:54;;;;;;;13.98;6.10;;;14.70;48.50;;;;;;6190988;28;20375;-73
2021/11/24 14:24:55;;;;;;;14.52;6.63;;;14.70;48.50;;;;;;6189044;28;20042;-75
2021/11/24 14:27:57;;;;;;;12.35;6.00;;;14.60;48.40;;;;;;6189995;28;20042;-74
2021/11/24 14:30:59;;;;;;;14.95;6.75;;;14.60;48.30;;;;;;6163038;28;20046;-73
2021/11/24 14:34:01;;;;;;;22.35;6.60;;;14.60;48.40;;;;;;6173317;28;20039;-73
2021/11/24 14:37:02;;;;;;;15.88;7.13;;;14.60;48.60;;;;;;6179627;28;20034;-74
2021/11/24 14:40:05;;;;;;;17.38;8.07;;;14.60;48.70;;;;;;6154185;28;20062;-74
2021/11/24 14:43:07;;;;;;;22.75;9.57;;;14.60;48.90;;;;;;6171555;28;20197;-73
2021/11/24 14:46:09;;;;;;;18.48;8.38;;;14.50;48.60;;;;;;6170613;28;20422;-74
2021/11/24 14:49:16;;;;;;;18.23;6.72;;;14.50;48.60;;;;;;6164052;28;20118;-73
2021/11/24 14:52:17;;;;;;;13.07;7.05;;;14.50;48.70;;;;;;6184106;28;20043;-77
2021/11/24 14:55:19;;;;;;;18.98;7.22;;;14.40;48.70;;;;;;6189528;28;20038;-73
2021/11/24 14:58:20;;;;;;;13.77;6.45;;;14.50;48.90;;;;;;6175618;28;20396;-72
2021/11/24 15:01:21;;;;;;;20.33;8.52;;;14.40;48.80;;;;;;6149828;28;20038;-74
2021/11/24 15:04:24;;;;;;;23.50;10.77;;;14.40;49.00;;;;;;6159252;28;20042;-73
2021/11/24 15:07:24;;;;;;;25.60;11.60;;;14.30;49.10;;;;;;6191319;28;20105;-74
2021/11/24 15:10:25;;;;;;;22.98;8.43;;;14.30;49.10;;;;;;6169019;28;20038;-73
2021/11/24 15:13:26;;;;;;;14.40;6.95;;;14.30;49.20;;;;;;6174781;28;20038;-74
2021/11/24 15:16:27;;;;;;;15.48;7.35;;;14.30;49.30;;;;;;6182099;28;20038;-73
2021/11/24 15:19:28;;;;;;;16.20;8.30;;;14.20;49.30;;;;;;6192248;28;20417;-71
2021/11/24 15:22:29;;;;;;;16.30;6.78;;;14.20;49.40;;;;;;6180347;28;20043;-72
2021/11/24 15:25:30;;;;;;;15.45;7.57;;;14.20;49.50;;;;;;6170557;28;20048;-72
2021/11/24 15:28:31;;;;;;;32.30;11.82;;;14.20;49.50;;;;;;6188595;28;20104;-72
2021/11/24 15:31:32;;;;;;;20.75;10.13;;;14.20;49.50;;;;;;6178423;28;20038;-71
2021/11/24 15:34:33;;;;;;;30.83;8.43;;;14.20;49.60;;;;;;6164502;28;20070;-72
2021/11/24 15:37:34;;;;;;;19.88;7.97;;;14.10;49.70;;;;;;6175898;28;20053;-72
2021/11/24 15:40:36;;;;;;;18.70;7.22;;;14.10;49.70;;;;;;6188726;28;20031;-72
2021/11/24 15:43:37;;;;;;;19.13;8.27;;;14.10;49.80;;;;;;6194794;28;20053;-71